sensor_id;sensor_type;location;lat;lon;timestamp;temperature;humidity
2631;DHT22;1325;48.414;9.952;2022-07-24T00:01:40;20.40;99.90
2631;DHT22;1325;48.414;9.952;2022-07-24T00:04:08;20.70;99.90
2631;DHT22;1325;48.414;9.952;2022-07-24T00:06:35;20.60;99.90
2631;DHT22;1325;48.414;9.952;2022-07-24T00:09:04;20.60;99.90
2631;DHT22;1325;48.414;9.952;2022-07-24T00:11:32;20.20;99.90
2631;DHT22;1325;48.414;9.952;2022-07-24T00:13:59;20.30;99.90
2631;DHT22;1325;48.414;9.952;2022-07-24T00:16:27;20.70;99.90
2631;DHT22;1325;48.414;9.952;2022-07-24T00:18:54;20.30;99.90
2631;DHT22;1325;48.414;9.952;2022-07-24T00:21:23;20.40;99.90
2631;DHT22;1325;48.414;9.952;2022-07-24T00:23:50;20.30;99.90
2631;DHT22;1325;48.414;9.952;2022-07-24T00:26:18;20.30;99.90
2631;DHT22;1325;48.414;9.952;2022-07-24T00:28:49;20.70;99.90
2631;DHT22;1325;48.414;9.952;2022-07-24T00:31:16;20.80;99.90
2631;DHT22;1325;48.414;9.952;2022-07-24T00:33:44;20.30;99.90
2631;DHT22;1325;48.414;9.952;2022-07-24T00:36:14;20.40;99.90
2631;DHT22;1325;48.414;9.952;2022-07-24T00:38:43;20.60;99.90
2631;DHT22;1325;48.414;9.952;2022-07-24T00:41:10;20.30;99.90
2631;DHT22;1325;48.414;9.952;2022-07-24T00:43:59;20.10;99.90
2631;DHT22;1325;48.414;9.952;2022-07-24T00:46:28;19.80;99.90
2631;DHT22;1325;48.414;9.952;2022-07-24T00:48:55;19.40;99.90
2631;DHT22;1325;48.414;9.952;2022-07-24T00:51:22;18.90;99.90
2631;DHT22;1325;48.414;9.952;2022-07-24T00:53:52;19.20;99.90
2631;DHT22;1325;48.414;9.952;2022-07-24T00:56:19;19.60;99.90
2631;DHT22;1325;48.414;9.952;2022-07-24T00:58:47;19.90;99.90
2631;DHT22;1325;48.414;9.952;2022-07-24T01:01:15;20.00;99.90
2631;DHT22;1325;48.414;9.952;2022-07-24T01:03:44;19.70;99.90
2631;DHT22;1325;48.414;9.952;2022-07-24T01:06:12;19.60;99.90
2631;DHT22;1325;48.414;9.952;2022-07-24T01:08:40;19.90;99.90
2631;DHT22;1325;48.414;9.952;2022-07-24T01:11:11;19.60;99.90
2631;DHT22;1325;48.414;9.952;2022-07-24T01:13:39;19.80;99.90
2631;DHT22;1325;48.414;9.952;2022-07-24T01:16:07;20.00;99.90
2631;DHT22;1325;48.414;9.952;2022-07-24T01:18:35;20.00;99.90
2631;DHT22;1325;48.414;9.952;2022-07-24T01:21:15;19.80;99.90
2631;DHT22;1325;48.414;9.952;2022-07-24T01:23:42;19.00;99.90
2631;DHT22;1325;48.414;9.952;2022-07-24T01:26:10;19.10;99.90
2631;DHT22;1325;48.414;9.952;2022-07-24T01:28:37;19.20;99.90
2631;DHT22;1325;48.414;9.952;2022-07-24T01:31:05;19.50;99.90
2631;DHT22;1325;48.414;9.952;2022-07-24T01:33:32;18.70;99.90
2631;DHT22;1325;48.414;9.952;2022-07-24T01:35:59;18.80;99.90
2631;DHT22;1325;48.414;9.952;2022-07-24T01:38:28;18.80;99.90
2631;DHT22;1325;48.414;9.952;2022-07-24T01:40:56;19.20;99.90
2631;DHT22;1325;48.414;9.952;2022-07-24T01:43:23;19.40;99.90
2631;DHT22;1325;48.414;9.952;2022-07-24T01:45:50;19.30;99.90
2631;DHT22;1325;48.414;9.952;2022-07-24T01:48:18;19.40;99.90
2631;DHT22;1325;48.414;9.952;2022-07-24T01:50:45;19.30;99.90
2631;DHT22;1325;48.414;9.952;2022-07-24T01:53:12;19.00;99.90
2631;DHT22;1325;48.414;9.952;2022-07-24T01:55:40;18.50;99.90
2631;DHT22;1325;48.414;9.952;2022-07-24T01:58:08;18.70;99.90
2631;DHT22;1325;48.414;9.952;2022-07-24T02:00:35;19.10;99.90
2631;DHT22;1325;48.414;9.952;2022-07-24T02:03:02;19.30;99.90
2631;DHT22;1325;48.414;9.952;2022-07-24T02:05:30;19.40;99.90
2631;DHT22;1325;48.414;9.952;2022-07-24T02:08:09;19.50;99.90
2631;DHT22;1325;48.414;9.952;2022-07-24T02:10:36;19.50;99.90
2631;DHT22;1325;48.414;9.952;2022-07-24T02:13:05;19.30;99.90
2631;DHT22;1325;48.414;9.952;2022-07-24T02:15:39;18.70;99.90
2631;DHT22;1325;48.414;9.952;2022-07-24T02:18:07;18.30;99.90
2631;DHT22;1325;48.414;9.952;2022-07-24T02:20:34;18.20;99.90
2631;DHT22;1325;48.414;9.952;2022-07-24T02:23:01;18.60;99.90
2631;DHT22;1325;48.414;9.952;2022-07-24T02:25:29;18.50;99.90
2631;DHT22;1325;48.414;9.952;2022-07-24T02:27:56;18.70;99.90
2631;DHT22;1325;48.414;9.952;2022-07-24T02:30:24;18.90;99.90
2631;DHT22;1325;48.414;9.952;2022-07-24T02:32:52;19.20;99.90
2631;DHT22;1325;48.414;9.952;2022-07-24T02:35:19;19.40;99.90
2631;DHT22;1325;48.414;9.952;2022-07-24T02:37:47;19.40;99.90
2631;DHT22;1325;48.414;9.952;2022-07-24T02:40:14;19.20;99.90
2631;DHT22;1325;48.414;9.952;2022-07-24T02:42:43;18.60;99.90
2631;DHT22;1325;48.414;9.952;2022-07-24T02:45:10;18.20;99.90
2631;DHT22;1325;48.414;9.952;2022-07-24T02:47:48;18.20;99.90
2631;DHT22;1325;48.414;9.952;2022-07-24T02:50:16;18.70;99.90
2631;DHT22;1325;48.414;9.952;2022-07-24T02:52:45;19.10;99.90
2631;DHT22;1325;48.414;9.952;2022-07-24T02:55:12;18.90;99.90
2631;DHT22;1325;48.414;9.952;2022-07-24T02:57:40;18.90;99.90
2631;DHT22;1325;48.414;9.952;2022-07-24T03:00:09;18.70;99.90
2631;DHT22;1325;48.414;9.952;2022-07-24T03:02:39;18.60;99.90
2631;DHT22;1325;48.414;9.952;2022-07-24T03:05:08;18.60;99.90
2631;DHT22;1325;48.414;9.952;2022-07-24T03:07:36;18.60;99.90
2631;DHT22;1325;48.414;9.952;2022-07-24T03:10:03;18.60;99.90
2631;DHT22;1325;48.414;9.952;2022-07-24T03:12:31;18.90;99.90
2631;DHT22;1325;48.414;9.952;2022-07-24T03:14:58;18.70;99.90
2631;DHT22;1325;48.414;9.952;2022-07-24T03:17:26;18.60;99.90
2631;DHT22;1325;48.414;9.952;2022-07-24T03:19:53;18.60;99.90
2631;DHT22;1325;48.414;9.952;2022-07-24T03:22:22;18.70;99.90
2631;DHT22;1325;48.414;9.952;2022-07-24T03:24:49;18.80;99.90
2631;DHT22;1325;48.414;9.952;2022-07-24T03:27:16;18.90;99.90
2631;DHT22;1325;48.414;9.952;2022-07-24T03:29:44;18.90;99.90
2631;DHT22;1325;48.414;9.952;2022-07-24T03:32:11;19.00;99.90
2631;DHT22;1325;48.414;9.952;2022-07-24T03:34:38;18.90;99.90
2631;DHT22;1325;48.414;9.952;2022-07-24T03:37:05;18.80;99.90
2631;DHT22;1325;48.414;9.952;2022-07-24T03:39:34;18.50;99.90
2631;DHT22;1325;48.414;9.952;2022-07-24T03:42:01;18.50;99.90
2631;DHT22;1325;48.414;9.952;2022-07-24T03:44:29;18.70;99.90
2631;DHT22;1325;48.414;9.952;2022-07-24T03:46:56;18.70;99.90
2631;DHT22;1325;48.414;9.952;2022-07-24T03:49:24;18.80;99.90
2631;DHT22;1325;48.414;9.952;2022-07-24T03:51:51;18.90;99.90
2631;DHT22;1325;48.414;9.952;2022-07-24T03:54:18;18.80;99.90
2631;DHT22;1325;48.414;9.952;2022-07-24T03:56:47;18.60;99.90
2631;DHT22;1325;48.414;9.952;2022-07-24T03:59:14;18.60;99.90
2631;DHT22;1325;48.414;9.952;2022-07-24T04:01:41;18.80;99.90
2631;DHT22;1325;48.414;9.952;2022-07-24T04:04:09;18.80;99.90
2631;DHT22;1325;48.414;9.952;2022-07-24T04:06:36;18.70;99.90
2631;DHT22;1325;48.414;9.952;2022-07-24T04:09:04;18.70;99.90
2631;DHT22;1325;48.414;9.952;2022-07-24T04:11:32;18.60;99.90
2631;DHT22;1325;48.414;9.952;2022-07-24T04:14:00;18.40;99.90
2631;DHT22;1325;48.414;9.952;2022-07-24T04:16:28;18.60;99.90
2631;DHT22;1325;48.414;9.952;2022-07-24T04:18:55;18.80;99.90
2631;DHT22;1325;48.414;9.952;2022-07-24T04:21:22;18.90;99.90
2631;DHT22;1325;48.414;9.952;2022-07-24T04:23:49;18.70;99.90
2631;DHT22;1325;48.414;9.952;2022-07-24T04:26:17;17.80;99.90
2631;DHT22;1325;48.414;9.952;2022-07-24T04:28:44;17.80;99.90
2631;DHT22;1325;48.414;9.952;2022-07-24T04:31:13;18.30;99.90
2631;DHT22;1325;48.414;9.952;2022-07-24T04:33:40;18.60;99.90
2631;DHT22;1325;48.414;9.952;2022-07-24T04:36:08;18.80;99.90
2631;DHT22;1325;48.414;9.952;2022-07-24T04:38:35;18.90;99.90
2631;DHT22;1325;48.414;9.952;2022-07-24T04:41:02;18.90;99.90
2631;DHT22;1325;48.414;9.952;2022-07-24T04:43:30;18.80;99.90
2631;DHT22;1325;48.414;9.952;2022-07-24T04:45:58;18.90;99.90
2631;DHT22;1325;48.414;9.952;2022-07-24T04:48:27;18.30;99.90
2631;DHT22;1325;48.414;9.952;2022-07-24T04:50:54;17.70;99.90
2631;DHT22;1325;48.414;9.952;2022-07-24T04:53:21;17.60;99.90
2631;DHT22;1325;48.414;9.952;2022-07-24T04:55:50;18.20;99.90
2631;DHT22;1325;48.414;9.952;2022-07-24T04:58:17;18.50;99.90
2631;DHT22;1325;48.414;9.952;2022-07-24T05:00:44;18.60;99.90
2631;DHT22;1325;48.414;9.952;2022-07-24T05:03:11;18.30;99.90
2631;DHT22;1325;48.414;9.952;2022-07-24T05:05:40;18.30;99.90
2631;DHT22;1325;48.414;9.952;2022-07-24T05:08:07;19.10;99.90
2631;DHT22;1325;48.414;9.952;2022-07-24T05:10:35;19.80;99.90
2631;DHT22;1325;48.414;9.952;2022-07-24T05:13:03;20.20;99.90
2631;DHT22;1325;48.414;9.952;2022-07-24T05:15:30;20.70;99.90
2631;DHT22;1325;48.414;9.952;2022-07-24T05:17:57;20.90;99.90
2631;DHT22;1325;48.414;9.952;2022-07-24T05:20:25;20.50;99.90
2631;DHT22;1325;48.414;9.952;2022-07-24T05:22:54;20.10;99.90
2631;DHT22;1325;48.414;9.952;2022-07-24T05:25:21;22.50;99.90
2631;DHT22;1325;48.414;9.952;2022-07-24T05:27:48;22.60;99.90
2631;DHT22;1325;48.414;9.952;2022-07-24T05:30:16;22.20;99.90
2631;DHT22;1325;48.414;9.952;2022-07-24T05:32:43;22.20;99.90
2631;DHT22;1325;48.414;9.952;2022-07-24T05:35:10;24.70;99.90
2631;DHT22;1325;48.414;9.952;2022-07-24T05:37:37;24.60;99.90
2631;DHT22;1325;48.414;9.952;2022-07-24T05:40:07;25.30;99.90
2631;DHT22;1325;48.414;9.952;2022-07-24T05:42:35;23.10;99.90
2631;DHT22;1325;48.414;9.952;2022-07-24T05:45:03;23.10;99.90
2631;DHT22;1325;48.414;9.952;2022-07-24T05:47:35;23.60;99.90
2631;DHT22;1325;48.414;9.952;2022-07-24T05:50:06;25.30;99.90
2631;DHT22;1325;48.414;9.952;2022-07-24T05:52:34;26.30;99.90
2631;DHT22;1325;48.414;9.952;2022-07-24T05:55:02;25.90;99.90
2631;DHT22;1325;48.414;9.952;2022-07-24T05:57:31;23.50;99.90
2631;DHT22;1325;48.414;9.952;2022-07-24T05:59:59;22.10;99.90
2631;DHT22;1325;48.414;9.952;2022-07-24T06:02:26;21.70;99.90
2631;DHT22;1325;48.414;9.952;2022-07-24T06:04:53;22.10;99.90
2631;DHT22;1325;48.414;9.952;2022-07-24T06:07:20;24.20;99.90
2631;DHT22;1325;48.414;9.952;2022-07-24T06:09:47;25.80;99.90
2631;DHT22;1325;48.414;9.952;2022-07-24T06:12:17;25.90;99.90
2631;DHT22;1325;48.414;9.952;2022-07-24T06:14:46;24.00;99.90
2631;DHT22;1325;48.414;9.952;2022-07-24T06:17:13;23.80;99.90
2631;DHT22;1325;48.414;9.952;2022-07-24T06:19:40;24.80;99.90
2631;DHT22;1325;48.414;9.952;2022-07-24T06:22:08;26.20;99.90
2631;DHT22;1325;48.414;9.952;2022-07-24T06:24:35;24.90;99.90
2631;DHT22;1325;48.414;9.952;2022-07-24T06:27:02;26.20;99.90
2631;DHT22;1325;48.414;9.952;2022-07-24T06:29:30;27.50;99.90
2631;DHT22;1325;48.414;9.952;2022-07-24T06:31:59;26.00;99.90
2631;DHT22;1325;48.414;9.952;2022-07-24T06:34:26;25.00;99.90
2631;DHT22;1325;48.414;9.952;2022-07-24T06:36:53;24.30;99.90
2631;DHT22;1325;48.414;9.952;2022-07-24T06:39:21;25.50;99.90
2631;DHT22;1325;48.414;9.952;2022-07-24T06:41:48;24.90;99.90
2631;DHT22;1325;48.414;9.952;2022-07-24T06:44:15;24.60;99.90
2631;DHT22;1325;48.414;9.952;2022-07-24T06:46:42;24.30;99.90
2631;DHT22;1325;48.414;9.952;2022-07-24T06:49:11;24.30;99.90
2631;DHT22;1325;48.414;9.952;2022-07-24T06:51:38;24.50;99.90
2631;DHT22;1325;48.414;9.952;2022-07-24T06:54:05;26.50;99.90
2631;DHT22;1325;48.414;9.952;2022-07-24T06:56:32;27.80;99.90
2631;DHT22;1325;48.414;9.952;2022-07-24T06:58:59;27.90;99.90
2631;DHT22;1325;48.414;9.952;2022-07-24T07:01:27;26.30;99.90
2631;DHT22;1325;48.414;9.952;2022-07-24T07:03:54;25.90;99.90
2631;DHT22;1325;48.414;9.952;2022-07-24T07:06:23;26.50;99.90
2631;DHT22;1325;48.414;9.952;2022-07-24T07:08:50;27.10;99.90
2631;DHT22;1325;48.414;9.952;2022-07-24T07:11:17;27.90;99.90
2631;DHT22;1325;48.414;9.952;2022-07-24T07:13:44;27.80;99.90
2631;DHT22;1325;48.414;9.952;2022-07-24T07:16:11;28.70;99.90
2631;DHT22;1325;48.414;9.952;2022-07-24T07:18:39;28.30;99.90
2631;DHT22;1325;48.414;9.952;2022-07-24T07:21:07;27.40;99.90
2631;DHT22;1325;48.414;9.952;2022-07-24T07:23:36;27.40;99.90
2631;DHT22;1325;48.414;9.952;2022-07-24T07:26:06;27.60;99.90
2631;DHT22;1325;48.414;9.952;2022-07-24T07:28:33;27.20;99.90
2631;DHT22;1325;48.414;9.952;2022-07-24T07:31:01;27.30;99.90
2631;DHT22;1325;48.414;9.952;2022-07-24T07:33:28;27.70;99.90
2631;DHT22;1325;48.414;9.952;2022-07-24T07:35:55;26.90;99.90
2631;DHT22;1325;48.414;9.952;2022-07-24T07:38:23;26.70;99.90
2631;DHT22;1325;48.414;9.952;2022-07-24T07:40:51;26.80;99.90
2631;DHT22;1325;48.414;9.952;2022-07-24T07:43:18;27.00;99.90
2631;DHT22;1325;48.414;9.952;2022-07-24T07:45:46;27.10;99.90
2631;DHT22;1325;48.414;9.952;2022-07-24T07:48:13;27.80;99.90
2631;DHT22;1325;48.414;9.952;2022-07-24T07:50:40;27.40;99.90
2631;DHT22;1325;48.414;9.952;2022-07-24T07:53:08;28.00;99.90
2631;DHT22;1325;48.414;9.952;2022-07-24T07:55:35;28.50;99.90
2631;DHT22;1325;48.414;9.952;2022-07-24T07:58:04;28.50;99.90
2631;DHT22;1325;48.414;9.952;2022-07-24T08:00:32;29.10;99.90
2631;DHT22;1325;48.414;9.952;2022-07-24T08:03:00;29.90;99.90
2631;DHT22;1325;48.414;9.952;2022-07-24T08:05:27;29.50;99.90
2631;DHT22;1325;48.414;9.952;2022-07-24T08:07:55;29.20;99.90
2631;DHT22;1325;48.414;9.952;2022-07-24T08:10:23;28.50;99.90
2631;DHT22;1325;48.414;9.952;2022-07-24T08:12:50;28.80;99.90
2631;DHT22;1325;48.414;9.952;2022-07-24T08:15:19;29.30;99.90
2631;DHT22;1325;48.414;9.952;2022-07-24T08:17:51;29.20;99.90
2631;DHT22;1325;48.414;9.952;2022-07-24T08:20:19;28.60;99.90
2631;DHT22;1325;48.414;9.952;2022-07-24T08:22:46;28.20;99.90
2631;DHT22;1325;48.414;9.952;2022-07-24T08:25:14;29.10;99.90
2631;DHT22;1325;48.414;9.952;2022-07-24T08:27:42;29.20;99.90
2631;DHT22;1325;48.414;9.952;2022-07-24T08:30:10;30.20;99.90
2631;DHT22;1325;48.414;9.952;2022-07-24T08:32:39;29.30;99.90
2631;DHT22;1325;48.414;9.952;2022-07-24T08:35:07;30.40;99.90
2631;DHT22;1325;48.414;9.952;2022-07-24T08:37:36;31.20;99.90
2631;DHT22;1325;48.414;9.952;2022-07-24T08:40:05;31.00;99.90
2631;DHT22;1325;48.414;9.952;2022-07-24T08:42:34;30.70;99.90
2631;DHT22;1325;48.414;9.952;2022-07-24T08:45:02;31.60;99.90
2631;DHT22;1325;48.414;9.952;2022-07-24T08:47:31;31.80;99.90
2631;DHT22;1325;48.414;9.952;2022-07-24T08:50:00;32.10;99.90
2631;DHT22;1325;48.414;9.952;2022-07-24T08:52:28;31.20;99.90
2631;DHT22;1325;48.414;9.952;2022-07-24T08:54:56;30.30;99.90
2631;DHT22;1325;48.414;9.952;2022-07-24T08:57:23;31.40;99.90
2631;DHT22;1325;48.414;9.952;2022-07-24T08:59:51;31.30;99.90
2631;DHT22;1325;48.414;9.952;2022-07-24T09:02:18;30.30;99.90
2631;DHT22;1325;48.414;9.952;2022-07-24T09:04:46;30.60;99.90
2631;DHT22;1325;48.414;9.952;2022-07-24T09:07:18;30.00;99.90
2631;DHT22;1325;48.414;9.952;2022-07-24T09:09:59;30.80;99.90
2631;DHT22;1325;48.414;9.952;2022-07-24T09:12:31;30.50;99.90
2631;DHT22;1325;48.414;9.952;2022-07-24T09:14:59;30.50;99.90
2631;DHT22;1325;48.414;9.952;2022-07-24T09:17:27;30.20;99.90
2631;DHT22;1325;48.414;9.952;2022-07-24T09:19:56;30.60;99.90
2631;DHT22;1325;48.414;9.952;2022-07-24T09:22:34;30.90;99.90
2631;DHT22;1325;48.414;9.952;2022-07-24T09:25:11;30.40;99.90
2631;DHT22;1325;48.414;9.952;2022-07-24T09:27:43;31.10;99.90
2631;DHT22;1325;48.414;9.952;2022-07-24T09:30:26;30.90;99.90
2631;DHT22;1325;48.414;9.952;2022-07-24T09:32:57;30.80;99.90
2631;DHT22;1325;48.414;9.952;2022-07-24T09:35:30;30.80;99.90
2631;DHT22;1325;48.414;9.952;2022-07-24T09:38:01;31.20;99.90
2631;DHT22;1325;48.414;9.952;2022-07-24T09:40:32;30.70;99.90
2631;DHT22;1325;48.414;9.952;2022-07-24T09:43:17;31.70;99.90
2631;DHT22;1325;48.414;9.952;2022-07-24T09:45:54;31.60;99.90
2631;DHT22;1325;48.414;9.952;2022-07-24T09:48:24;32.20;99.90
2631;DHT22;1325;48.414;9.952;2022-07-24T09:50:54;31.90;99.90
2631;DHT22;1325;48.414;9.952;2022-07-24T09:53:26;31.80;99.90
2631;DHT22;1325;48.414;9.952;2022-07-24T09:56:00;32.30;99.90
2631;DHT22;1325;48.414;9.952;2022-07-24T09:58:31;32.20;99.90
2631;DHT22;1325;48.414;9.952;2022-07-24T10:01:01;31.60;99.90
2631;DHT22;1325;48.414;9.952;2022-07-24T10:03:30;31.50;99.90
2631;DHT22;1325;48.414;9.952;2022-07-24T10:06:00;31.20;99.90
2631;DHT22;1325;48.414;9.952;2022-07-24T10:08:30;31.40;99.90
2631;DHT22;1325;48.414;9.952;2022-07-24T10:10:58;30.60;99.90
2631;DHT22;1325;48.414;9.952;2022-07-24T10:13:28;31.10;99.90
2631;DHT22;1325;48.414;9.952;2022-07-24T10:16:10;31.50;99.90
2631;DHT22;1325;48.414;9.952;2022-07-24T10:18:56;31.20;99.90
2631;DHT22;1325;48.414;9.952;2022-07-24T10:21:25;30.80;99.90
2631;DHT22;1325;48.414;9.952;2022-07-24T10:24:20;31.20;99.90
2631;DHT22;1325;48.414;9.952;2022-07-24T10:27:04;31.40;99.90
2631;DHT22;1325;48.414;9.952;2022-07-24T10:29:34;31.00;99.90
2631;DHT22;1325;48.414;9.952;2022-07-24T10:32:03;31.40;99.90
2631;DHT22;1325;48.414;9.952;2022-07-24T10:34:46;31.20;99.90
2631;DHT22;1325;48.414;9.952;2022-07-24T10:37:21;31.10;99.90
2631;DHT22;1325;48.414;9.952;2022-07-24T10:39:58;31.80;99.90
2631;DHT22;1325;48.414;9.952;2022-07-24T10:42:30;31.90;99.90
2631;DHT22;1325;48.414;9.952;2022-07-24T10:45:14;32.00;99.90
2631;DHT22;1325;48.414;9.952;2022-07-24T10:47:43;32.00;99.90
2631;DHT22;1325;48.414;9.952;2022-07-24T10:50:11;31.90;99.90
2631;DHT22;1325;48.414;9.952;2022-07-24T10:52:40;32.40;99.20
2631;DHT22;1325;48.414;9.952;2022-07-24T10:55:28;32.00;97.60
2631;DHT22;1325;48.414;9.952;2022-07-24T10:57:59;32.80;93.50
2631;DHT22;1325;48.414;9.952;2022-07-24T11:00:31;33.10;91.90
2631;DHT22;1325;48.414;9.952;2022-07-24T11:03:02;33.00;93.00
2631;DHT22;1325;48.414;9.952;2022-07-24T11:05:32;31.70;99.20
2631;DHT22;1325;48.414;9.952;2022-07-24T11:11:11;31.00;99.90
2631;DHT22;1325;48.414;9.952;2022-07-24T11:13:58;31.00;99.00
2631;DHT22;1325;48.414;9.952;2022-07-24T11:16:29;30.70;97.10
2631;DHT22;1325;48.414;9.952;2022-07-24T11:19:29;30.40;97.60
2631;DHT22;1325;48.414;9.952;2022-07-24T11:22:10;30.30;98.00
2631;DHT22;1325;48.414;9.952;2022-07-24T11:24:45;30.10;98.40
2631;DHT22;1325;48.414;9.952;2022-07-24T11:27:46;29.90;97.40
2631;DHT22;1325;48.414;9.952;2022-07-24T11:30:16;30.00;92.60
2631;DHT22;1325;48.414;9.952;2022-07-24T11:32:44;30.00;93.70
2631;DHT22;1325;48.414;9.952;2022-07-24T11:35:11;29.80;95.50
2631;DHT22;1325;48.414;9.952;2022-07-24T11:37:40;30.10;96.30
2631;DHT22;1325;48.414;9.952;2022-07-24T11:40:13;29.50;93.20
2631;DHT22;1325;48.414;9.952;2022-07-24T11:42:42;29.30;96.60
2631;DHT22;1325;48.414;9.952;2022-07-24T11:45:10;29.50;96.10
2631;DHT22;1325;48.414;9.952;2022-07-24T11:47:38;29.50;99.90
2631;DHT22;1325;48.414;9.952;2022-07-24T11:50:07;29.30;99.90
2631;DHT22;1325;48.414;9.952;2022-07-24T11:52:36;29.20;99.90
2631;DHT22;1325;48.414;9.952;2022-07-24T11:55:07;29.90;95.50
2631;DHT22;1325;48.414;9.952;2022-07-24T11:57:36;29.10;96.80
2631;DHT22;1325;48.414;9.952;2022-07-24T12:00:08;28.70;96.90
2631;DHT22;1325;48.414;9.952;2022-07-24T12:02:37;28.70;96.90
2631;DHT22;1325;48.414;9.952;2022-07-24T12:05:05;28.90;94.70
2631;DHT22;1325;48.414;9.952;2022-07-24T12:07:34;28.60;96.70
2631;DHT22;1325;48.414;9.952;2022-07-24T12:10:03;28.30;97.10
2631;DHT22;1325;48.414;9.952;2022-07-24T12:12:33;28.60;95.80
2631;DHT22;1325;48.414;9.952;2022-07-24T12:15:03;29.20;94.40
2631;DHT22;1325;48.414;9.952;2022-07-24T12:17:34;29.50;94.30
2631;DHT22;1325;48.414;9.952;2022-07-24T12:20:04;29.60;94.80
2631;DHT22;1325;48.414;9.952;2022-07-24T12:22:34;29.20;93.10
2631;DHT22;1325;48.414;9.952;2022-07-24T12:25:01;29.50;95.20
2631;DHT22;1325;48.414;9.952;2022-07-24T12:27:40;30.00;93.20
2631;DHT22;1325;48.414;9.952;2022-07-24T12:30:21;29.80;94.10
2631;DHT22;1325;48.414;9.952;2022-07-24T12:32:57;30.00;92.70
2631;DHT22;1325;48.414;9.952;2022-07-24T12:35:27;29.60;96.00
2631;DHT22;1325;48.414;9.952;2022-07-24T12:37:56;29.80;96.00
2631;DHT22;1325;48.414;9.952;2022-07-24T12:40:27;29.40;98.20
2631;DHT22;1325;48.414;9.952;2022-07-24T12:42:58;29.90;91.10
2631;DHT22;1325;48.414;9.952;2022-07-24T12:45:28;29.90;92.90
2631;DHT22;1325;48.414;9.952;2022-07-24T12:48:07;30.00;93.00
2631;DHT22;1325;48.414;9.952;2022-07-24T12:50:37;30.10;91.70
2631;DHT22;1325;48.414;9.952;2022-07-24T12:53:05;30.20;90.20
2631;DHT22;1325;48.414;9.952;2022-07-24T12:55:34;30.30;90.50
2631;DHT22;1325;48.414;9.952;2022-07-24T12:58:04;30.00;91.80
2631;DHT22;1325;48.414;9.952;2022-07-24T13:00:34;30.00;93.70
2631;DHT22;1325;48.414;9.952;2022-07-24T13:03:01;29.70;92.30
2631;DHT22;1325;48.414;9.952;2022-07-24T13:05:39;30.10;92.40
2631;DHT22;1325;48.414;9.952;2022-07-24T13:08:07;30.50;87.00
2631;DHT22;1325;48.414;9.952;2022-07-24T13:10:35;30.20;87.60
2631;DHT22;1325;48.414;9.952;2022-07-24T13:13:03;29.90;90.00
2631;DHT22;1325;48.414;9.952;2022-07-24T13:15:30;29.90;87.90
2631;DHT22;1325;48.414;9.952;2022-07-24T13:17:59;29.90;87.40
2631;DHT22;1325;48.414;9.952;2022-07-24T13:20:26;29.80;90.00
2631;DHT22;1325;48.414;9.952;2022-07-24T13:22:53;29.70;90.70
2631;DHT22;1325;48.414;9.952;2022-07-24T13:25:20;29.90;92.30
2631;DHT22;1325;48.414;9.952;2022-07-24T13:27:48;30.10;90.50
2631;DHT22;1325;48.414;9.952;2022-07-24T13:30:15;30.20;90.80
2631;DHT22;1325;48.414;9.952;2022-07-24T13:32:42;30.10;94.50
2631;DHT22;1325;48.414;9.952;2022-07-24T13:35:11;30.30;93.50
2631;DHT22;1325;48.414;9.952;2022-07-24T13:37:38;30.30;93.40
2631;DHT22;1325;48.414;9.952;2022-07-24T13:40:07;30.80;89.10
2631;DHT22;1325;48.414;9.952;2022-07-24T13:42:37;30.60;91.50
2631;DHT22;1325;48.414;9.952;2022-07-24T13:45:06;29.70;91.80
2631;DHT22;1325;48.414;9.952;2022-07-24T13:47:34;29.60;91.50
2631;DHT22;1325;48.414;9.952;2022-07-24T13:50:03;29.90;88.80
2631;DHT22;1325;48.414;9.952;2022-07-24T13:52:33;29.70;92.30
2631;DHT22;1325;48.414;9.952;2022-07-24T13:55:00;29.90;91.30
2631;DHT22;1325;48.414;9.952;2022-07-24T13:57:28;29.60;91.20
2631;DHT22;1325;48.414;9.952;2022-07-24T13:59:56;29.70;93.80
2631;DHT22;1325;48.414;9.952;2022-07-24T14:02:23;29.90;92.40
2631;DHT22;1325;48.414;9.952;2022-07-24T14:04:50;30.10;86.80
2631;DHT22;1325;48.414;9.952;2022-07-24T14:07:17;30.10;89.70
2631;DHT22;1325;48.414;9.952;2022-07-24T14:09:46;29.90;88.80
2631;DHT22;1325;48.414;9.952;2022-07-24T14:12:13;30.00;90.80
2631;DHT22;1325;48.414;9.952;2022-07-24T14:14:40;29.60;91.00
2631;DHT22;1325;48.414;9.952;2022-07-24T14:17:08;29.90;91.00
2631;DHT22;1325;48.414;9.952;2022-07-24T14:19:35;29.90;91.30
2631;DHT22;1325;48.414;9.952;2022-07-24T14:22:02;29.80;91.00
2631;DHT22;1325;48.414;9.952;2022-07-24T14:24:29;29.80;88.60
2631;DHT22;1325;48.414;9.952;2022-07-24T14:26:57;30.00;88.30
2631;DHT22;1325;48.414;9.952;2022-07-24T14:29:25;29.70;90.40
2631;DHT22;1325;48.414;9.952;2022-07-24T14:31:52;29.50;92.50
2631;DHT22;1325;48.414;9.952;2022-07-24T14:34:19;30.00;90.90
2631;DHT22;1325;48.414;9.952;2022-07-24T14:36:46;30.40;85.50
2631;DHT22;1325;48.414;9.952;2022-07-24T14:39:14;30.50;83.10
2631;DHT22;1325;48.414;9.952;2022-07-24T14:41:41;29.90;84.90
2631;DHT22;1325;48.414;9.952;2022-07-24T14:44:10;29.80;87.80
2631;DHT22;1325;48.414;9.952;2022-07-24T14:46:37;29.90;89.70
2631;DHT22;1325;48.414;9.952;2022-07-24T14:49:05;30.00;88.90
2631;DHT22;1325;48.414;9.952;2022-07-24T14:51:32;30.20;90.20
2631;DHT22;1325;48.414;9.952;2022-07-24T14:53:59;30.50;87.60
2631;DHT22;1325;48.414;9.952;2022-07-24T14:56:27;30.40;90.70
2631;DHT22;1325;48.414;9.952;2022-07-24T14:58:54;29.60;89.80
2631;DHT22;1325;48.414;9.952;2022-07-24T15:01:23;29.90;89.90
2631;DHT22;1325;48.414;9.952;2022-07-24T15:03:50;29.90;88.20
2631;DHT22;1325;48.414;9.952;2022-07-24T15:06:17;30.10;82.40
2631;DHT22;1325;48.414;9.952;2022-07-24T15:08:45;30.30;84.20
2631;DHT22;1325;48.414;9.952;2022-07-24T15:11:12;29.90;86.20
2631;DHT22;1325;48.414;9.952;2022-07-24T15:13:40;30.00;88.60
2631;DHT22;1325;48.414;9.952;2022-07-24T15:16:07;30.40;86.30
2631;DHT22;1325;48.414;9.952;2022-07-24T15:18:36;30.40;85.60
2631;DHT22;1325;48.414;9.952;2022-07-24T15:21:04;30.40;83.70
2631;DHT22;1325;48.414;9.952;2022-07-24T15:23:32;30.20;83.20
2631;DHT22;1325;48.414;9.952;2022-07-24T15:25:59;30.40;83.40
2631;DHT22;1325;48.414;9.952;2022-07-24T15:28:27;30.50;79.60
2631;DHT22;1325;48.414;9.952;2022-07-24T15:30:54;30.00;82.50
2631;DHT22;1325;48.414;9.952;2022-07-24T15:33:21;30.20;82.40
2631;DHT22;1325;48.414;9.952;2022-07-24T15:35:50;30.20;85.60
2631;DHT22;1325;48.414;9.952;2022-07-24T15:38:17;29.90;84.30
2631;DHT22;1325;48.414;9.952;2022-07-24T15:40:45;30.30;79.90
2631;DHT22;1325;48.414;9.952;2022-07-24T15:43:13;30.20;80.80
2631;DHT22;1325;48.414;9.952;2022-07-24T15:45:40;30.20;79.00
2631;DHT22;1325;48.414;9.952;2022-07-24T15:48:08;30.00;80.70
2631;DHT22;1325;48.414;9.952;2022-07-24T15:50:35;30.00;79.60
2631;DHT22;1325;48.414;9.952;2022-07-24T15:53:03;30.00;79.10
2631;DHT22;1325;48.414;9.952;2022-07-24T15:55:31;30.00;83.00
2631;DHT22;1325;48.414;9.952;2022-07-24T15:57:58;30.10;80.60
2631;DHT22;1325;48.414;9.952;2022-07-24T16:00:25;30.00;79.00
2631;DHT22;1325;48.414;9.952;2022-07-24T16:02:52;30.20;78.20
2631;DHT22;1325;48.414;9.952;2022-07-24T16:05:22;30.30;80.10
2631;DHT22;1325;48.414;9.952;2022-07-24T16:07:50;30.30;77.80
2631;DHT22;1325;48.414;9.952;2022-07-24T16:10:19;30.10;79.80
2631;DHT22;1325;48.414;9.952;2022-07-24T16:12:47;29.90;83.90
2631;DHT22;1325;48.414;9.952;2022-07-24T16:15:14;29.90;82.80
2631;DHT22;1325;48.414;9.952;2022-07-24T16:17:43;30.20;76.20